createdAt,value
2022-12-05T00:01:54.599Z,23.5
2022-12-05T00:06:55.991Z,31.9
2022-12-05T00:08:55.847Z,33.3
2022-12-05T00:10:55.734Z,36.2
2022-12-05T00:12:59.191Z,30.1
2022-12-05T00:14:58.991Z,30.3
2022-12-05T00:16:58.960Z,17.1
2022-12-05T00:18:58.753Z,34.6
2022-12-05T00:20:58.625Z,26.6
2022-12-05T00:37:01.183Z,11.6
2022-12-05T00:39:01.052Z,26.4
2022-12-05T00:41:04.448Z,32.4
2022-12-05T00:43:04.337Z,24.2
2022-12-05T00:51:03.877Z,13.1
2022-12-05T00:53:03.753Z,23.6
2022-12-05T00:55:07.181Z,32.9
2022-12-05T00:57:07.034Z,33.6
2022-12-05T00:59:06.908Z,23.6
2022-12-05T01:03:29.256Z,20.9
2022-12-05T01:05:29.044Z,29.8
2022-12-05T01:09:32.306Z,16
2022-12-05T01:13:32.086Z,33.9
2022-12-05T01:15:31.976Z,30
2022-12-05T01:17:31.856Z,27.9
2022-12-05T01:19:31.724Z,29.7
2022-12-05T01:21:35.080Z,37.6
2022-12-05T01:23:35.017Z,27.1
2022-12-05T01:25:34.897Z,31.4
2022-12-05T01:29:34.615Z,27.7
2022-12-05T01:31:34.617Z,30.5
2022-12-05T01:35:37.814Z,38.5
2022-12-05T01:39:37.562Z,26.7
2022-12-05T01:41:37.468Z,32.7
2022-12-05T01:45:37.284Z,33.9
2022-12-05T01:47:37.147Z,36.8
2022-12-05T01:53:40.276Z,31.5
2022-12-05T01:56:41.826Z,20.6
2022-12-05T01:58:41.669Z,29.6
2022-12-05T02:00:41.529Z,30.3
2022-12-05T02:06:44.982Z,15.5
2022-12-05T02:08:44.589Z,33.8
2022-12-05T02:10:44.667Z,13.4
2022-12-05T02:12:44.473Z,17.7
2022-12-05T02:14:44.569Z,27.2
2022-12-05T02:16:48.161Z,33.3
2022-12-05T02:18:47.521Z,37.9
2022-12-05T02:20:47.481Z,29.9
2022-12-05T02:22:47.319Z,24.3
2022-12-05T02:24:47.212Z,7.8
2022-12-05T02:26:47.069Z,26.8
2022-12-05T02:28:46.881Z,36.3
2022-12-05T02:36:49.891Z,17.4
2022-12-05T02:38:49.752Z,12
2022-12-05T02:48:52.627Z,13.5
2022-12-05T02:50:09.668Z,34.5
2022-12-05T02:51:54.221Z,27.2
2022-12-05T02:55:53.949Z,24.8
2022-12-05T02:57:57.308Z,27.9
2022-12-05T02:59:57.537Z,30
2022-12-05T03:01:57.133Z,21
2022-12-05T03:03:57.028Z,25.5
2022-12-05T03:05:56.838Z,29.2
2022-12-05T03:07:56.726Z,24.4
2022-12-05T03:09:56.896Z,20.1
2022-12-05T03:11:59.935Z,23.9
2022-12-05T03:13:59.842Z,16.4
2022-12-05T03:15:59.707Z,21.7
2022-12-05T03:17:59.562Z,20.9
2022-12-05T03:19:59.890Z,27
2022-12-05T03:21:59.307Z,22.7
2022-12-05T03:23:59.212Z,28
2022-12-05T03:26:02.569Z,23.3
2022-12-05T03:28:02.474Z,15
2022-12-05T03:32:02.176Z,25.1
2022-12-05T03:34:02.110Z,23.7
2022-12-05T03:36:01.953Z,28.4
2022-12-05T03:42:05.085Z,29.8
2022-12-05T03:45:06.668Z,22.5
2022-12-05T03:47:06.542Z,27
2022-12-05T03:49:06.416Z,23.2
2022-12-05T03:51:06.295Z,23
2022-12-05T03:53:20.645Z,21.6
2022-12-05T03:55:09.551Z,27.2
2022-12-05T03:57:09.476Z,20.3
2022-12-05T03:59:09.323Z,12.5
2022-12-05T04:01:09.247Z,25.9
2022-12-05T04:03:09.205Z,22.9
2022-12-05T04:05:08.964Z,28.2
2022-12-05T04:07:12.335Z,21.5
2022-12-05T04:09:16.849Z,28.4
2022-12-05T04:13:11.977Z,27.4
2022-12-05T04:19:11.576Z,14.6
2022-12-05T04:21:14.957Z,28.4
2022-12-05T04:23:14.807Z,24
2022-12-05T04:31:14.401Z,30.6
2022-12-05T04:33:14.195Z,29.2
2022-12-05T04:35:17.576Z,33.9
2022-12-05T04:37:17.432Z,17.1
2022-12-05T04:39:18.367Z,23.6
2022-12-05T04:41:33.583Z,24.9
2022-12-05T04:43:33.464Z,23.4
2022-12-05T04:45:33.346Z,20.3
2022-12-05T04:47:36.697Z,23.5
2022-12-05T04:49:38.166Z,22.1
2022-12-05T04:51:37.992Z,7.2
2022-12-05T04:53:37.874Z,23.6
2022-12-05T04:55:37.763Z,21.1
2022-12-05T04:57:37.633Z,25.2
2022-12-05T04:59:37.523Z,17.4
2022-12-05T05:01:40.918Z,20.8
2022-12-05T05:03:40.756Z,16.8
2022-12-05T05:05:40.655Z,21
2022-12-05T05:07:40.520Z,19.5
2022-12-05T05:09:40.391Z,23.3
2022-12-05T05:11:40.272Z,19.9
2022-12-05T05:13:40.148Z,12
2022-12-05T05:15:43.559Z,23.4
2022-12-05T05:17:43.403Z,12.1
2022-12-05T05:19:43.256Z,19.9
2022-12-05T05:21:43.143Z,33.7
2022-12-05T05:23:43.041Z,27.1
2022-12-05T05:25:42.913Z,28.9
2022-12-05T05:27:42.799Z,23.2
2022-12-05T05:29:46.144Z,19.8
2022-12-05T05:31:46.144Z,17.6
2022-12-05T05:33:45.909Z,14.7
2022-12-05T05:34:47.600Z,18.8
2022-12-05T05:36:47.454Z,25.9
2022-12-05T05:38:47.314Z,29.6
2022-12-05T05:40:47.215Z,23.8
2022-12-05T05:42:50.617Z,25
2022-12-05T05:44:50.501Z,15.5
2022-12-05T05:46:50.393Z,28.6
2022-12-05T05:50:50.059Z,22.7
2022-12-05T05:52:49.927Z,24.1
2022-12-05T05:54:49.821Z,19.5
2022-12-05T05:56:53.193Z,8.4
2022-12-05T06:00:52.945Z,24.9
2022-12-05T06:02:52.987Z,17.9
2022-12-05T06:04:52.695Z,18.4
2022-12-05T06:06:52.587Z,16.7
2022-12-05T06:10:55.815Z,13.4
2022-12-05T06:24:58.463Z,21.8
2022-12-05T06:26:58.363Z,15
2022-12-05T06:30:00.149Z,19.6
2022-12-05T06:31:59.892Z,21.1
2022-12-05T06:34:00.136Z,25.4
2022-12-05T06:36:00.034Z,18.4
2022-12-05T06:38:03.361Z,21
2022-12-05T06:40:03.229Z,33.4
2022-12-05T06:42:03.110Z,34
2022-12-05T06:44:02.992Z,19.4
2022-12-05T06:46:02.947Z,17.2
2022-12-05T06:48:02.757Z,29.2
2022-12-05T06:50:02.622Z,21.8
2022-12-05T06:56:05.741Z,21.2
2022-12-05T07:00:05.404Z,29.2
2022-12-05T07:02:05.360Z,36
2022-12-05T07:06:08.542Z,22.9
2022-12-05T07:08:08.470Z,33.6
2022-12-05T07:10:08.262Z,33.2
2022-12-05T07:12:08.188Z,15.4
2022-12-05T07:14:19.178Z,22.4
2022-12-05T07:16:07.984Z,26
2022-12-05T07:18:07.774Z,26.5
2022-12-05T07:20:11.157Z,43
2022-12-05T07:22:15.627Z,36.9
2022-12-05T07:24:10.903Z,30
2022-12-05T07:25:12.617Z,27.2
2022-12-05T07:27:12.444Z,27
2022-12-05T07:39:15.213Z,24.6
2022-12-05T07:41:15.085Z,17.6
2022-12-05T07:43:14.962Z,26.4
2022-12-05T07:45:14.817Z,28.6
2022-12-05T07:47:18.332Z,27.7
2022-12-05T07:49:18.053Z,20.8
2022-12-05T07:51:17.922Z,7.4
2022-12-05T07:53:17.804Z,36.5
2022-12-05T07:55:17.686Z,25.2
2022-12-05T07:57:17.562Z,31
2022-12-05T07:59:17.420Z,26.5
2022-12-05T08:01:20.844Z,23.7
2022-12-05T08:03:20.648Z,32.5
2022-12-05T08:05:20.547Z,23.7
2022-12-05T08:07:20.450Z,25.3
2022-12-05T08:09:20.278Z,20.8
2022-12-05T08:11:20.172Z,16.4
2022-12-05T08:13:20.063Z,24.6
2022-12-05T08:15:23.436Z,28.6
2022-12-05T08:17:23.255Z,33.3
2022-12-05T08:21:39.210Z,28.3
2022-12-05T08:23:39.098Z,37
2022-12-05T08:25:38.956Z,24.3
2022-12-05T08:27:42.303Z,32.9
2022-12-05T08:29:42.187Z,35.6
2022-12-05T08:33:41.943Z,37.2
2022-12-05T08:35:41.783Z,28
2022-12-05T08:37:41.643Z,20.1
2022-12-05T08:39:41.495Z,34.9
2022-12-05T08:41:44.846Z,21.9
2022-12-05T08:43:44.739Z,20.7
2022-12-05T08:47:44.492Z,24.5
2022-12-05T08:49:44.318Z,18
2022-12-05T08:57:47.298Z,23.3
2022-12-05T08:59:47.158Z,28.8
2022-12-05T09:03:48.257Z,32.7
2022-12-05T09:05:46.808Z,33.3
2022-12-05T09:07:46.746Z,28
2022-12-05T09:09:50.010Z,35.5
2022-12-05T09:11:49.908Z,27.3
2022-12-05T09:13:49.804Z,30.7
2022-12-05T09:14:51.478Z,27.5
2022-12-05T09:16:51.333Z,26.9
2022-12-05T09:18:51.212Z,24.3
2022-12-05T09:20:51.075Z,19.7
2022-12-05T09:22:54.413Z,27.7
2022-12-05T09:24:54.285Z,26.4
2022-12-05T09:26:54.179Z,15.7
2022-12-05T09:30:53.969Z,25.5
2022-12-05T09:37:10.634Z,20.2
2022-12-05T09:38:56.855Z,23.1
2022-12-05T09:40:58.975Z,24.6
2022-12-05T09:42:56.614Z,23.9
2022-12-05T09:44:56.739Z,13.9
2022-12-05T09:46:56.377Z,21.2
2022-12-05T09:48:56.203Z,34.7
2022-12-05T09:50:59.565Z,21.1
2022-12-05T09:52:59.394Z,22.9
2022-12-05T09:54:59.376Z,19.7
2022-12-05T09:56:59.135Z,23.2
2022-12-05T09:58:59.008Z,21.6
2022-12-05T10:00:58.883Z,17.5
2022-12-05T10:02:58.727Z,16.7
2022-12-05T10:05:02.384Z,20.7
2022-12-05T10:07:01.919Z,18.5
2022-12-05T10:09:01.799Z,18.4
2022-12-05T10:10:03.484Z,25.6
2022-12-05T10:12:03.328Z,23.8
2022-12-05T10:14:03.172Z,17.7
2022-12-05T10:16:03.132Z,21.5
2022-12-05T10:18:06.437Z,19.7
2022-12-05T10:20:06.299Z,21.1
2022-12-05T10:22:06.156Z,19.3
2022-12-05T10:26:05.836Z,20.8
2022-12-05T10:28:05.624Z,19.6
2022-12-05T10:30:05.515Z,18.1
2022-12-05T10:32:08.828Z,21
2022-12-05T10:36:08.596Z,19
2022-12-05T10:38:10.042Z,17.2
2022-12-05T10:40:09.832Z,12.5
2022-12-05T10:42:09.634Z,11
2022-12-05T10:46:16.854Z,13.8
2022-12-05T10:48:12.716Z,18.5
2022-12-05T10:50:12.555Z,10.3
2022-12-05T10:52:12.339Z,12.9
2022-12-05T10:54:12.220Z,10
2022-12-05T10:56:30.535Z,13.2
2022-12-05T10:58:16.875Z,18.4
2022-12-05T11:00:15.331Z,8.6
2022-12-05T11:02:15.327Z,10
2022-12-05T11:04:15.048Z,9.4
2022-12-05T11:05:16.767Z,12.5
2022-12-05T11:07:16.628Z,10
2022-12-05T11:11:16.321Z,8.5
2022-12-05T11:13:19.659Z,8.7
2022-12-05T11:15:19.520Z,7.7
2022-12-05T11:17:19.328Z,8.1
2022-12-05T11:19:19.176Z,7.4
2022-12-05T11:21:19.035Z,4.1
2022-12-05T11:23:18.876Z,5.7
2022-12-05T11:25:18.638Z,5.7
2022-12-05T11:27:22.019Z,6.3
2022-12-05T11:29:21.854Z,8
2022-12-05T11:31:21.742Z,7.7
2022-12-05T11:33:21.578Z,6.5
2022-12-05T11:35:21.374Z,11
2022-12-05T11:37:21.236Z,4.1
2022-12-05T11:39:21.109Z,6.6
2022-12-05T11:43:24.308Z,5.9
2022-12-05T11:47:23.935Z,5.8
2022-12-05T11:51:23.632Z,4.7
2022-12-05T11:53:23.526Z,4
2022-12-05T11:55:26.866Z,6.5
2022-12-05T11:57:26.747Z,5.3
2022-12-05T11:59:26.647Z,3.8
2022-12-05T12:01:48.755Z,3.8
2022-12-05T12:05:48.302Z,3.6
2022-12-05T12:07:51.725Z,5.7
2022-12-05T12:09:51.524Z,7.5
2022-12-05T12:11:51.387Z,4.1
2022-12-05T12:13:51.151Z,6.4
2022-12-05T12:15:51.008Z,3.5
2022-12-05T12:17:50.880Z,2.6
2022-12-05T12:19:50.778Z,4
2022-12-05T12:21:54.116Z,6.3
2022-12-05T12:25:53.745Z,5.3
2022-12-05T12:27:53.585Z,2.2
2022-12-05T12:29:53.441Z,5.2
2022-12-05T12:31:53.395Z,5.8
2022-12-05T12:33:53.189Z,3.4
2022-12-05T12:35:56.502Z,3.6
2022-12-05T12:37:56.364Z,4.5
2022-12-05T12:39:56.218Z,7.3
2022-12-05T12:41:56.087Z,5
2022-12-05T12:45:55.918Z,3.9
2022-12-05T12:47:55.685Z,9.1
2022-12-05T12:53:58.762Z,5
2022-12-05T13:03:03.436Z,5.7
2022-12-05T13:05:03.278Z,6.3
2022-12-05T13:07:03.162Z,2.8
2022-12-05T13:09:03.060Z,4.4
2022-12-05T13:11:02.919Z,6.4
2022-12-05T13:13:02.784Z,7.3
2022-12-05T13:15:02.672Z,3.8
2022-12-05T13:17:06.073Z,5.7
2022-12-05T13:19:05.914Z,4.5
2022-12-05T13:21:05.769Z,4.8
2022-12-05T13:27:05.356Z,4.4
2022-12-05T13:29:05.202Z,4.4
2022-12-05T13:41:07.938Z,5.3
2022-12-05T13:43:07.797Z,6.9
2022-12-05T13:45:11.180Z,5.7
2022-12-05T13:47:11.070Z,3.9
2022-12-05T13:49:14.373Z,8.6
2022-12-05T13:50:12.578Z,5.4
2022-12-05T13:52:12.438Z,4.9
2022-12-05T13:54:12.263Z,6.1
2022-12-05T13:56:12.138Z,7
2022-12-05T13:58:15.495Z,5.8
2022-12-05T14:00:15.354Z,5.4
2022-12-05T14:02:15.292Z,4.3
2022-12-05T14:04:15.084Z,5.3
2022-12-05T14:06:14.922Z,3.4
2022-12-05T14:10:14.664Z,4.7
2022-12-05T14:12:18.013Z,5.5
2022-12-05T14:14:17.867Z,8.2
2022-12-05T14:16:17.804Z,5.2
2022-12-05T14:18:17.607Z,5.6
2022-12-05T14:20:17.460Z,9.5
2022-12-05T14:22:17.325Z,5
2022-12-05T14:24:17.194Z,6.8
2022-12-05T14:26:20.614Z,7.7
2022-12-05T14:28:20.453Z,6.5
2022-12-05T14:30:20.287Z,8.8
2022-12-05T14:32:20.146Z,6.4
2022-12-05T14:34:20.027Z,4.9
2022-12-05T14:36:19.869Z,6.5
2022-12-05T14:38:19.707Z,7.7
2022-12-05T14:40:23.083Z,6.7
2022-12-05T14:42:22.952Z,30.7
2022-12-05T14:44:22.834Z,6.1
2022-12-05T14:45:24.618Z,7.2
2022-12-05T14:47:24.379Z,8.2
2022-12-05T14:49:24.211Z,8.8
2022-12-05T14:51:24.111Z,7.3
2022-12-05T14:53:27.450Z,12.7
2022-12-05T14:55:27.396Z,15.6
2022-12-05T14:57:27.164Z,13
2022-12-05T14:59:27.044Z,16.1
2022-12-05T15:01:26.968Z,16.1
2022-12-05T15:03:26.796Z,7.7
2022-12-05T15:05:26.673Z,5.2
2022-12-05T15:07:33.168Z,5.6
2022-12-05T15:09:37.293Z,9.5
2022-12-05T15:11:29.729Z,6.2
2022-12-05T15:13:29.607Z,6.8
2022-12-05T15:15:29.544Z,11.3
2022-12-05T15:17:29.319Z,9.1
2022-12-05T15:19:29.180Z,6.5
2022-12-05T15:21:32.552Z,7.8
2022-12-05T15:23:32.503Z,6.7
2022-12-05T15:25:32.302Z,6.7
2022-12-05T15:27:32.150Z,5.7
2022-12-05T15:29:32.045Z,12.7
2022-12-05T15:33:31.725Z,7.9
2022-12-05T15:55:59.486Z,5.5
2022-12-05T16:04:02.284Z,5.6
2022-12-05T16:06:02.117Z,5.9
2022-12-05T16:08:01.994Z,4.6
2022-12-05T16:10:02.043Z,6
2022-12-05T16:12:01.680Z,5.3
2022-12-05T16:14:01.422Z,7.1
2022-12-05T16:16:04.770Z,11.1
2022-12-05T16:18:04.604Z,4.5
2022-12-05T16:20:04.460Z,6.5
2022-12-05T16:22:04.318Z,7.5
2022-12-05T16:24:05.747Z,4.3
2022-12-05T16:26:05.553Z,7.9
2022-12-05T16:28:05.412Z,15.4
2022-12-05T16:30:08.756Z,5.8
2022-12-05T16:32:08.621Z,13.6
2022-12-05T16:34:08.476Z,11.4
2022-12-05T16:43:13.011Z,4.4
2022-12-05T16:47:12.689Z,4.8
2022-12-05T16:51:12.392Z,8.5
2022-12-05T16:53:12.254Z,6.7
2022-12-05T16:55:12.109Z,6.4
2022-12-05T16:57:15.473Z,5.4
2022-12-05T16:59:15.339Z,6.6
2022-12-05T17:01:15.295Z,6.5
2022-12-05T17:03:33.395Z,6.2
2022-12-05T17:05:14.904Z,4.2
2022-12-05T17:09:14.641Z,6.3
2022-12-05T17:11:18.073Z,5.3
2022-12-05T17:13:17.837Z,7.1
2022-12-05T17:15:17.707Z,7.3
2022-12-05T17:17:17.552Z,5.6
2022-12-05T17:19:17.435Z,3.7
2022-12-05T17:21:17.286Z,10.9
2022-12-05T17:30:21.909Z,4.9
2022-12-05T17:32:21.754Z,4.4
2022-12-05T17:34:21.614Z,4.5
2022-12-05T17:36:21.464Z,5
2022-12-05T17:38:24.856Z,7.3
2022-12-05T17:40:25.073Z,5
2022-12-05T17:42:24.897Z,6.2
2022-12-05T17:44:24.767Z,4.1
2022-12-05T17:46:24.734Z,4.8
2022-12-05T17:48:24.480Z,6.8
2022-12-05T17:50:24.348Z,4.9
2022-12-05T17:52:27.719Z,6.2
2022-12-05T17:54:27.578Z,9.8
2022-12-05T17:56:27.407Z,9.8
2022-12-05T17:58:27.260Z,9.3
2022-12-05T18:00:27.147Z,8.2
2022-12-05T18:02:26.958Z,9.8
2022-12-05T18:04:26.808Z,7.6
2022-12-05T18:06:30.170Z,5.1
2022-12-05T18:12:29.745Z,14.2
2022-12-05T18:14:29.573Z,12.8
2022-12-05T18:16:29.477Z,7.1
2022-12-05T18:18:29.296Z,16.3
2022-12-05T18:20:32.640Z,13
2022-12-05T18:22:32.494Z,8.4
2022-12-05T18:24:32.355Z,23
2022-12-05T18:27:33.893Z,17.1
2022-12-05T18:29:33.779Z,16.3
2022-12-05T18:31:33.707Z,18.9
2022-12-05T18:33:36.968Z,14.5
2022-12-05T18:35:36.792Z,7.8
2022-12-05T18:37:36.644Z,6.2
2022-12-05T18:39:36.501Z,5.5
2022-12-05T18:43:36.217Z,7.6
2022-12-05T18:45:36.151Z,6.5
2022-12-05T18:47:39.434Z,6.7
2022-12-05T18:59:38.577Z,3.5
2022-12-05T19:01:42.283Z,7.3
2022-12-05T19:03:41.802Z,9.1
2022-12-05T19:05:41.626Z,5.7
2022-12-05T19:07:41.528Z,7.8
2022-12-05T19:09:41.262Z,42.6
2022-12-05T19:11:46.998Z,24.3
2022-12-05T19:13:40.974Z,9.4
2022-12-05T19:15:44.323Z,6.6
2022-12-05T19:17:44.177Z,8.5
2022-12-05T19:19:44.044Z,6.2
2022-12-05T19:22:03.848Z,8.9
2022-12-05T19:24:03.656Z,8.2
2022-12-05T19:26:03.451Z,6
2022-12-05T19:28:06.792Z,6
2022-12-05T19:30:10.007Z,7.6
2022-12-05T19:32:06.627Z,6.6
2022-12-05T19:34:06.404Z,4.9
2022-12-05T19:36:06.271Z,4.9
2022-12-05T19:38:06.113Z,5.3
2022-12-05T19:40:05.977Z,6.4
2022-12-05T19:42:09.332Z,6.6
2022-12-05T19:44:09.188Z,11.1
2022-12-05T19:46:09.079Z,6.8
2022-12-05T19:48:08.947Z,4.6
2022-12-05T19:50:08.769Z,4.8
2022-12-05T19:52:08.641Z,4.8
2022-12-05T19:54:08.523Z,7.4
2022-12-05T19:56:11.858Z,6
2022-12-05T19:58:11.704Z,6
2022-12-05T20:00:11.576Z,9
2022-12-05T20:06:11.141Z,6.2
2022-12-05T20:08:11.105Z,5.4
2022-12-05T20:10:14.351Z,4.3
2022-12-05T20:12:14.290Z,5.7
2022-12-05T20:21:15.334Z,5.4
2022-12-05T20:23:18.633Z,4.6
2022-12-05T20:25:18.513Z,4.7
2022-12-05T20:27:18.344Z,11.3
2022-12-05T20:29:18.213Z,6
2022-12-05T20:31:18.166Z,5
2022-12-05T20:33:17.923Z,8.2
2022-12-05T20:35:22.534Z,5.4
2022-12-05T20:37:21.120Z,5.7
2022-12-05T20:39:20.988Z,4.8
2022-12-05T20:41:20.872Z,4.1
2022-12-05T20:43:20.716Z,4.2
2022-12-05T20:45:20.541Z,5
2022-12-05T20:47:20.415Z,6.1
2022-12-05T20:49:20.325Z,7.4
2022-12-05T20:51:23.601Z,10.1
2022-12-05T20:53:23.502Z,18.4
2022-12-05T21:05:26.142Z,23.7
2022-12-05T21:10:27.549Z,11.5
2022-12-05T21:12:27.376Z,9.1
2022-12-05T21:14:27.239Z,9
2022-12-05T21:16:27.157Z,6
2022-12-05T21:18:30.464Z,6.8
2022-12-05T21:20:30.335Z,4.8
2022-12-05T21:22:30.198Z,5.4
2022-12-05T21:24:30.049Z,5.8
2022-12-05T21:26:29.919Z,7.3
2022-12-05T21:28:29.797Z,8.3
2022-12-05T21:30:29.658Z,5.1
2022-12-05T21:32:32.993Z,6
2022-12-05T21:34:32.846Z,5.5
2022-12-05T21:36:32.708Z,7.3
2022-12-05T21:42:32.269Z,5.9
2022-12-05T21:46:35.658Z,6
2022-12-05T21:48:35.398Z,5.6
2022-12-05T21:54:34.955Z,4.1
2022-12-05T21:56:34.851Z,2.6
2022-12-05T21:58:39.312Z,4.9
2022-12-05T22:00:38.020Z,4.8
2022-12-05T22:02:37.960Z,5.7
2022-12-05T22:04:37.722Z,6
2022-12-05T22:05:39.424Z,4.8
2022-12-05T22:07:39.319Z,5.6
2022-12-05T22:09:40.732Z,3.3
2022-12-05T22:11:40.533Z,5.4
2022-12-05T22:13:43.853Z,4.9
2022-12-05T22:15:43.685Z,5.5
2022-12-05T22:17:43.512Z,4.5
2022-12-05T22:19:43.332Z,5.5
2022-12-05T22:21:43.177Z,5.8
2022-12-05T22:23:43.026Z,4.5
2022-12-05T22:25:42.825Z,5.1
2022-12-05T22:27:46.185Z,6.5
2022-12-05T22:29:49.917Z,5.7
2022-12-05T22:31:45.974Z,4.4
2022-12-05T22:33:45.734Z,4.6
2022-12-05T22:35:45.615Z,4.4
2022-12-05T22:37:45.481Z,5.3
2022-12-05T22:39:45.347Z,5.3
2022-12-05T22:41:48.670Z,6.3
2022-12-05T22:43:48.540Z,5.2
2022-12-05T22:45:48.404Z,7.5
2022-12-05T22:47:48.263Z,4.9
2022-12-05T22:49:48.095Z,5
2022-12-05T22:51:47.958Z,7.1
2022-12-05T22:53:47.841Z,4.8
2022-12-05T22:55:51.194Z,5.3
2022-12-05T22:57:51.054Z,7.5
2022-12-05T23:02:06.874Z,6.6
2022-12-05T23:04:06.820Z,8
2022-12-05T23:06:11.217Z,6.2
2022-12-05T23:08:10.077Z,6.2
2022-12-05T23:10:09.791Z,5.1
2022-12-05T23:12:09.665Z,4.5
2022-12-05T23:14:09.524Z,4.7
2022-12-05T23:16:09.392Z,12.1
2022-12-05T23:18:09.196Z,4.8
2022-12-05T23:20:09.074Z,4.3
2022-12-05T23:22:12.403Z,5
2022-12-05T23:26:12.131Z,4.4
2022-12-05T23:28:11.986Z,7.6
2022-12-05T23:30:11.843Z,4.2
2022-12-05T23:32:11.694Z,9.3
2022-12-05T23:34:11.557Z,4
2022-12-05T23:36:14.898Z,4.3
2022-12-05T23:38:14.722Z,7.8
2022-12-05T23:40:14.586Z,4.3
2022-12-05T23:42:15.487Z,4.2
2022-12-05T23:44:14.298Z,7.7
2022-12-05T23:46:14.286Z,4.6
2022-12-05T23:48:14.044Z,8.9
2022-12-05T23:50:17.216Z,4.6
2022-12-05T23:52:17.005Z,4.3
2022-12-05T23:54:16.862Z,4.2
2022-12-05T23:57:18.396Z,6.4
2022-12-05T23:59:18.218Z,6.5
